Rocky Ford, Georgia
Current Conditions -  °F | °C
As of 1:55 AM on Monday 24 Nov 2014 (Local Time) from KJYL Reporting Station
Overcast Overcast  
Wind Chill: 66°   Ceiling: 600
Heat Index: 66°   Visibility: 10mi
Dew Point: 65°   Wind: 3mph
Humidity: 97%   Direction: 230°SW
Pressure: 29.83"   Gusts: NA
Location:  32.66°N, 81.83°W
Report Text: KJYL 240655Z AUTO 23003KT 10SM BKN006 OVC022 19/19 A2983 RMK AO2 LTG DSNT E T01900185
Loading
Personal Weather Stations






























Interactive Weather Map New forecast layout! Learn more

10-Day Weather Forecast

Advertisements
Track Severe Weather on mobile